sensor_id;sensor_type;location;lat;lon;timestamp;temperature;humidity
2463;DHT22;1243;54.298;10.172;2024-03-08T00:01:15;2.10;99.90
2463;DHT22;1243;54.298;10.172;2024-03-08T00:03:42;2.10;99.90
2463;DHT22;1243;54.298;10.172;2024-03-08T00:06:08;2.00;99.90
2463;DHT22;1243;54.298;10.172;2024-03-08T00:08:33;2.00;99.90
2463;DHT22;1243;54.298;10.172;2024-03-08T00:10:59;2.00;99.90
2463;DHT22;1243;54.298;10.172;2024-03-08T00:13:25;2.00;99.90
2463;DHT22;1243;54.298;10.172;2024-03-08T00:15:51;2.00;99.90
2463;DHT22;1243;54.298;10.172;2024-03-08T00:18:16;2.00;99.90
2463;DHT22;1243;54.298;10.172;2024-03-08T00:20:42;2.00;99.90
2463;DHT22;1243;54.298;10.172;2024-03-08T00:23:10;2.00;99.90
2463;DHT22;1243;54.298;10.172;2024-03-08T00:25:36;2.00;99.90
2463;DHT22;1243;54.298;10.172;2024-03-08T00:28:02;1.90;99.90
2463;DHT22;1243;54.298;10.172;2024-03-08T00:30:31;1.80;99.90
2463;DHT22;1243;54.298;10.172;2024-03-08T00:32:57;1.80;99.90
2463;DHT22;1243;54.298;10.172;2024-03-08T00:35:22;1.80;99.90
2463;DHT22;1243;54.298;10.172;2024-03-08T00:37:48;1.80;99.90
2463;DHT22;1243;54.298;10.172;2024-03-08T00:40:14;1.90;99.90
2463;DHT22;1243;54.298;10.172;2024-03-08T00:42:40;1.90;99.90
2463;DHT22;1243;54.298;10.172;2024-03-08T00:45:07;1.90;99.90
2463;DHT22;1243;54.298;10.172;2024-03-08T00:47:33;1.90;99.90
2463;DHT22;1243;54.298;10.172;2024-03-08T00:49:59;1.90;99.90
2463;DHT22;1243;54.298;10.172;2024-03-08T00:52:24;1.90;99.90
2463;DHT22;1243;54.298;10.172;2024-03-08T00:54:50;1.90;99.90
2463;DHT22;1243;54.298;10.172;2024-03-08T00:57:16;1.90;99.90
2463;DHT22;1243;54.298;10.172;2024-03-08T00:59:42;1.80;99.90
2463;DHT22;1243;54.298;10.172;2024-03-08T01:02:07;1.80;99.90
2463;DHT22;1243;54.298;10.172;2024-03-08T01:04:36;1.80;99.90
2463;DHT22;1243;54.298;10.172;2024-03-08T01:07:02;1.80;99.90
2463;DHT22;1243;54.298;10.172;2024-03-08T01:09:28;1.80;99.90
2463;DHT22;1243;54.298;10.172;2024-03-08T01:11:54;1.80;99.90
2463;DHT22;1243;54.298;10.172;2024-03-08T01:14:21;1.70;99.90
2463;DHT22;1243;54.298;10.172;2024-03-08T01:16:49;1.80;99.90
2463;DHT22;1243;54.298;10.172;2024-03-08T01:19:15;1.80;99.90
2463;DHT22;1243;54.298;10.172;2024-03-08T01:21:41;1.80;99.90
2463;DHT22;1243;54.298;10.172;2024-03-08T01:24:07;1.80;99.90
2463;DHT22;1243;54.298;10.172;2024-03-08T01:26:33;1.80;99.90
2463;DHT22;1243;54.298;10.172;2024-03-08T01:29:03;1.80;99.90
2463;DHT22;1243;54.298;10.172;2024-03-08T01:31:29;1.80;99.90
2463;DHT22;1243;54.298;10.172;2024-03-08T01:33:56;1.70;99.90
2463;DHT22;1243;54.298;10.172;2024-03-08T01:36:22;1.70;99.90
2463;DHT22;1243;54.298;10.172;2024-03-08T01:38:47;1.70;99.90
2463;DHT22;1243;54.298;10.172;2024-03-08T01:41:13;1.70;99.90
2463;DHT22;1243;54.298;10.172;2024-03-08T01:43:39;1.70;99.90
2463;DHT22;1243;54.298;10.172;2024-03-08T01:46:05;1.70;99.90
2463;DHT22;1243;54.298;10.172;2024-03-08T01:48:34;1.70;99.90
2463;DHT22;1243;54.298;10.172;2024-03-08T01:50:59;1.60;99.90
2463;DHT22;1243;54.298;10.172;2024-03-08T01:53:26;1.60;99.90
2463;DHT22;1243;54.298;10.172;2024-03-08T01:55:57;1.60;99.90
2463;DHT22;1243;54.298;10.172;2024-03-08T01:58:24;1.60;99.90
2463;DHT22;1243;54.298;10.172;2024-03-08T02:00:50;1.50;99.90
2463;DHT22;1243;54.298;10.172;2024-03-08T02:03:16;1.50;99.90
2463;DHT22;1243;54.298;10.172;2024-03-08T02:05:42;1.50;99.90
2463;DHT22;1243;54.298;10.172;2024-03-08T02:08:09;1.40;99.90
2463;DHT22;1243;54.298;10.172;2024-03-08T02:10:41;1.40;99.90
2463;DHT22;1243;54.298;10.172;2024-03-08T02:13:07;1.40;99.90
2463;DHT22;1243;54.298;10.172;2024-03-08T02:15:56;1.30;99.90
2463;DHT22;1243;54.298;10.172;2024-03-08T02:18:22;1.30;99.90
2463;DHT22;1243;54.298;10.172;2024-03-08T02:20:52;1.30;99.90
2463;DHT22;1243;54.298;10.172;2024-03-08T02:23:19;1.30;99.90
2463;DHT22;1243;54.298;10.172;2024-03-08T02:25:45;1.30;99.90
2463;DHT22;1243;54.298;10.172;2024-03-08T02:28:12;1.30;99.90
2463;DHT22;1243;54.298;10.172;2024-03-08T02:30:38;1.20;99.90
2463;DHT22;1243;54.298;10.172;2024-03-08T02:33:04;1.20;99.90
2463;DHT22;1243;54.298;10.172;2024-03-08T02:35:31;1.20;99.90
2463;DHT22;1243;54.298;10.172;2024-03-08T02:37:56;1.20;99.90
2463;DHT22;1243;54.298;10.172;2024-03-08T02:40:22;1.20;99.90
2463;DHT22;1243;54.298;10.172;2024-03-08T02:42:48;1.20;99.90
2463;DHT22;1243;54.298;10.172;2024-03-08T02:45:13;1.20;99.90
2463;DHT22;1243;54.298;10.172;2024-03-08T02:47:39;1.20;99.90
2463;DHT22;1243;54.298;10.172;2024-03-08T02:50:06;1.20;99.90
2463;DHT22;1243;54.298;10.172;2024-03-08T02:52:34;1.20;99.90
2463;DHT22;1243;54.298;10.172;2024-03-08T02:55:01;1.20;99.90
2463;DHT22;1243;54.298;10.172;2024-03-08T02:57:27;1.20;99.90
2463;DHT22;1243;54.298;10.172;2024-03-08T02:59:53;1.30;99.90
2463;DHT22;1243;54.298;10.172;2024-03-08T03:02:19;1.30;99.90
2463;DHT22;1243;54.298;10.172;2024-03-08T03:04:45;1.40;99.90
2463;DHT22;1243;54.298;10.172;2024-03-08T03:07:11;1.50;99.90
2463;DHT22;1243;54.298;10.172;2024-03-08T03:09:36;1.50;99.90
2463;DHT22;1243;54.298;10.172;2024-03-08T03:12:02;1.60;99.90
2463;DHT22;1243;54.298;10.172;2024-03-08T03:14:28;1.60;99.90
2463;DHT22;1243;54.298;10.172;2024-03-08T03:16:54;1.70;99.90
2463;DHT22;1243;54.298;10.172;2024-03-08T03:19:20;1.70;99.90
2463;DHT22;1243;54.298;10.172;2024-03-08T03:21:47;1.80;99.90
2463;DHT22;1243;54.298;10.172;2024-03-08T03:24:12;1.80;99.90
2463;DHT22;1243;54.298;10.172;2024-03-08T03:26:41;1.90;99.90
2463;DHT22;1243;54.298;10.172;2024-03-08T03:29:09;2.00;99.90
2463;DHT22;1243;54.298;10.172;2024-03-08T03:31:36;2.00;99.90
2463;DHT22;1243;54.298;10.172;2024-03-08T03:34:02;2.00;99.90
2463;DHT22;1243;54.298;10.172;2024-03-08T03:36:32;2.10;99.90
2463;DHT22;1243;54.298;10.172;2024-03-08T03:38:58;2.10;99.90
2463;DHT22;1243;54.298;10.172;2024-03-08T03:41:36;2.10;99.90
2463;DHT22;1243;54.298;10.172;2024-03-08T03:44:02;2.20;99.90
2463;DHT22;1243;54.298;10.172;2024-03-08T03:46:27;2.20;99.90
2463;DHT22;1243;54.298;10.172;2024-03-08T03:48:54;2.20;99.90
2463;DHT22;1243;54.298;10.172;2024-03-08T03:51:21;2.20;99.90
2463;DHT22;1243;54.298;10.172;2024-03-08T03:53:47;2.20;99.90
2463;DHT22;1243;54.298;10.172;2024-03-08T03:56:12;2.20;99.90
2463;DHT22;1243;54.298;10.172;2024-03-08T03:58:38;2.30;99.90
2463;DHT22;1243;54.298;10.172;2024-03-08T04:01:05;2.30;99.90
2463;DHT22;1243;54.298;10.172;2024-03-08T04:03:31;2.40;99.90
2463;DHT22;1243;54.298;10.172;2024-03-08T04:05:56;2.50;99.90
2463;DHT22;1243;54.298;10.172;2024-03-08T04:08:22;2.40;99.90
2463;DHT22;1243;54.298;10.172;2024-03-08T04:10:50;2.40;1.00
2463;DHT22;1243;54.298;10.172;2024-03-08T04:13:16;2.50;1.00
2463;DHT22;1243;54.298;10.172;2024-03-08T04:15:42;2.50;1.00
2463;DHT22;1243;54.298;10.172;2024-03-08T04:18:10;2.50;1.00
2463;DHT22;1243;54.298;10.172;2024-03-08T04:20:36;2.50;1.00
2463;DHT22;1243;54.298;10.172;2024-03-08T04:23:02;2.60;1.00
2463;DHT22;1243;54.298;10.172;2024-03-08T04:25:28;2.60;1.00
2463;DHT22;1243;54.298;10.172;2024-03-08T04:27:53;2.60;1.00
2463;DHT22;1243;54.298;10.172;2024-03-08T04:30:19;2.50;1.00
2463;DHT22;1243;54.298;10.172;2024-03-08T04:32:46;2.50;1.00
2463;DHT22;1243;54.298;10.172;2024-03-08T04:35:13;2.50;1.00
2463;DHT22;1243;54.298;10.172;2024-03-08T04:37:40;2.50;1.00
2463;DHT22;1243;54.298;10.172;2024-03-08T04:40:06;2.60;1.00
2463;DHT22;1243;54.298;10.172;2024-03-08T04:42:32;2.60;1.00
2463;DHT22;1243;54.298;10.172;2024-03-08T04:44:59;2.60;1.00
2463;DHT22;1243;54.298;10.172;2024-03-08T04:47:25;2.60;1.00
2463;DHT22;1243;54.298;10.172;2024-03-08T04:49:51;2.60;1.00
2463;DHT22;1243;54.298;10.172;2024-03-08T04:52:17;2.60;1.00
2463;DHT22;1243;54.298;10.172;2024-03-08T04:54:43;2.50;1.00
2463;DHT22;1243;54.298;10.172;2024-03-08T04:57:10;2.40;1.00
2463;DHT22;1243;54.298;10.172;2024-03-08T04:59:36;2.40;1.00
2463;DHT22;1243;54.298;10.172;2024-03-08T05:02:02;2.50;1.00
2463;DHT22;1243;54.298;10.172;2024-03-08T05:04:28;2.50;1.00
2463;DHT22;1243;54.298;10.172;2024-03-08T05:06:54;2.50;1.00
2463;DHT22;1243;54.298;10.172;2024-03-08T05:09:20;2.40;1.00
2463;DHT22;1243;54.298;10.172;2024-03-08T05:11:46;2.50;1.00
2463;DHT22;1243;54.298;10.172;2024-03-08T05:14:13;2.40;1.00
2463;DHT22;1243;54.298;10.172;2024-03-08T05:16:45;2.50;1.00
2463;DHT22;1243;54.298;10.172;2024-03-08T05:19:17;2.50;1.00
2463;DHT22;1243;54.298;10.172;2024-03-08T05:21:47;2.50;1.00
2463;DHT22;1243;54.298;10.172;2024-03-08T05:24:13;2.60;1.00
2463;DHT22;1243;54.298;10.172;2024-03-08T05:26:40;2.70;1.00
2463;DHT22;1243;54.298;10.172;2024-03-08T05:29:05;2.80;1.00
2463;DHT22;1243;54.298;10.172;2024-03-08T05:31:50;2.70;1.00
2463;DHT22;1243;54.298;10.172;2024-03-08T05:34:17;2.70;1.00
2463;DHT22;1243;54.298;10.172;2024-03-08T05:36:45;2.70;1.00
2463;DHT22;1243;54.298;10.172;2024-03-08T05:39:17;2.70;1.00
2463;DHT22;1243;54.298;10.172;2024-03-08T05:41:44;2.80;1.00
2463;DHT22;1243;54.298;10.172;2024-03-08T05:44:11;2.60;1.00
2463;DHT22;1243;54.298;10.172;2024-03-08T05:46:37;2.70;1.00
2463;DHT22;1243;54.298;10.172;2024-03-08T05:49:04;2.70;1.00
2463;DHT22;1243;54.298;10.172;2024-03-08T05:51:34;2.80;1.00
2463;DHT22;1243;54.298;10.172;2024-03-08T05:54:04;2.80;1.00
2463;DHT22;1243;54.298;10.172;2024-03-08T05:56:34;2.80;1.00
2463;DHT22;1243;54.298;10.172;2024-03-08T05:59:01;2.70;1.00
2463;DHT22;1243;54.298;10.172;2024-03-08T06:01:28;2.80;1.00
2463;DHT22;1243;54.298;10.172;2024-03-08T06:03:54;2.80;1.00
2463;DHT22;1243;54.298;10.172;2024-03-08T06:06:26;2.90;1.00
2463;DHT22;1243;54.298;10.172;2024-03-08T06:08:51;3.00;1.00
2463;DHT22;1243;54.298;10.172;2024-03-08T06:11:18;3.00;1.00
2463;DHT22;1243;54.298;10.172;2024-03-08T06:13:45;3.00;1.00
2463;DHT22;1243;54.298;10.172;2024-03-08T06:16:11;2.90;1.00
2463;DHT22;1243;54.298;10.172;2024-03-08T06:18:37;2.90;1.00
2463;DHT22;1243;54.298;10.172;2024-03-08T06:21:04;3.00;1.00
2463;DHT22;1243;54.298;10.172;2024-03-08T06:23:34;3.00;1.00
2463;DHT22;1243;54.298;10.172;2024-03-08T06:26:04;3.00;1.00
2463;DHT22;1243;54.298;10.172;2024-03-08T06:28:30;3.10;1.00
2463;DHT22;1243;54.298;10.172;2024-03-08T06:31:01;3.20;1.00
2463;DHT22;1243;54.298;10.172;2024-03-08T06:33:27;3.20;1.00
2463;DHT22;1243;54.298;10.172;2024-03-08T06:35:54;3.20;1.00
2463;DHT22;1243;54.298;10.172;2024-03-08T06:38:25;3.10;1.00
2463;DHT22;1243;54.298;10.172;2024-03-08T06:40:51;3.10;1.00
2463;DHT22;1243;54.298;10.172;2024-03-08T06:43:17;3.10;1.00
2463;DHT22;1243;54.298;10.172;2024-03-08T06:45:44;3.20;1.00
2463;DHT22;1243;54.298;10.172;2024-03-08T06:48:17;3.20;1.00
2463;DHT22;1243;54.298;10.172;2024-03-08T06:50:44;3.20;1.00
2463;DHT22;1243;54.298;10.172;2024-03-08T06:53:11;3.20;1.00
2463;DHT22;1243;54.298;10.172;2024-03-08T06:55:36;3.20;1.00
2463;DHT22;1243;54.298;10.172;2024-03-08T06:58:02;3.30;1.00
2463;DHT22;1243;54.298;10.172;2024-03-08T07:00:28;3.20;1.00
2463;DHT22;1243;54.298;10.172;2024-03-08T07:02:56;3.20;1.00
2463;DHT22;1243;54.298;10.172;2024-03-08T07:05:23;3.30;1.00
2463;DHT22;1243;54.298;10.172;2024-03-08T07:07:49;3.30;1.00
2463;DHT22;1243;54.298;10.172;2024-03-08T07:10:16;3.30;1.00
2463;DHT22;1243;54.298;10.172;2024-03-08T07:12:42;3.30;1.00
2463;DHT22;1243;54.298;10.172;2024-03-08T07:15:08;3.30;1.00
2463;DHT22;1243;54.298;10.172;2024-03-08T07:17:39;3.30;1.00
2463;DHT22;1243;54.298;10.172;2024-03-08T07:20:05;3.30;1.00
2463;DHT22;1243;54.298;10.172;2024-03-08T07:22:36;3.20;1.00
2463;DHT22;1243;54.298;10.172;2024-03-08T07:25:02;3.30;1.00
2463;DHT22;1243;54.298;10.172;2024-03-08T07:27:51;3.30;1.00
2463;DHT22;1243;54.298;10.172;2024-03-08T07:30:18;3.30;1.00
2463;DHT22;1243;54.298;10.172;2024-03-08T07:33:02;3.40;1.00
2463;DHT22;1243;54.298;10.172;2024-03-08T07:35:29;3.30;1.00
2463;DHT22;1243;54.298;10.172;2024-03-08T07:37:55;3.20;1.00
2463;DHT22;1243;54.298;10.172;2024-03-08T07:40:23;3.20;1.00
2463;DHT22;1243;54.298;10.172;2024-03-08T07:42:49;3.20;1.00
2463;DHT22;1243;54.298;10.172;2024-03-08T07:45:18;3.30;1.00
2463;DHT22;1243;54.298;10.172;2024-03-08T07:47:44;3.30;1.00
2463;DHT22;1243;54.298;10.172;2024-03-08T07:50:10;3.20;1.00
2463;DHT22;1243;54.298;10.172;2024-03-08T07:52:36;3.20;1.00
2463;DHT22;1243;54.298;10.172;2024-03-08T07:55:05;3.20;1.00
2463;DHT22;1243;54.298;10.172;2024-03-08T07:57:31;3.40;1.00
2463;DHT22;1243;54.298;10.172;2024-03-08T07:59:57;3.40;1.00
2463;DHT22;1243;54.298;10.172;2024-03-08T08:02:23;3.50;1.00
2463;DHT22;1243;54.298;10.172;2024-03-08T08:04:49;3.70;1.00
2463;DHT22;1243;54.298;10.172;2024-03-08T08:07:14;3.90;1.00
2463;DHT22;1243;54.298;10.172;2024-03-08T08:09:41;4.10;1.00
2463;DHT22;1243;54.298;10.172;2024-03-08T08:12:08;4.30;1.00
2463;DHT22;1243;54.298;10.172;2024-03-08T08:14:40;4.40;1.00
2463;DHT22;1243;54.298;10.172;2024-03-08T08:17:06;4.50;1.00
2463;DHT22;1243;54.298;10.172;2024-03-08T08:19:34;4.40;1.00
2463;DHT22;1243;54.298;10.172;2024-03-08T08:22:01;4.30;1.00
2463;DHT22;1243;54.298;10.172;2024-03-08T08:24:27;4.30;1.00
2463;DHT22;1243;54.298;10.172;2024-03-08T08:26:53;4.30;1.00
2463;DHT22;1243;54.298;10.172;2024-03-08T08:29:19;4.20;1.00
2463;DHT22;1243;54.298;10.172;2024-03-08T08:31:46;4.10;99.90
2463;DHT22;1243;54.298;10.172;2024-03-08T08:34:12;4.10;99.90
2463;DHT22;1243;54.298;10.172;2024-03-08T08:36:39;4.20;99.90
2463;DHT22;1243;54.298;10.172;2024-03-08T08:39:05;4.30;99.90
2463;DHT22;1243;54.298;10.172;2024-03-08T08:41:37;4.20;99.90
2463;DHT22;1243;54.298;10.172;2024-03-08T08:44:03;4.10;99.90
2463;DHT22;1243;54.298;10.172;2024-03-08T08:46:29;4.00;99.90
2463;DHT22;1243;54.298;10.172;2024-03-08T08:48:55;4.10;99.90
2463;DHT22;1243;54.298;10.172;2024-03-08T08:51:20;4.10;99.90
2463;DHT22;1243;54.298;10.172;2024-03-08T08:53:48;4.20;99.90
2463;DHT22;1243;54.298;10.172;2024-03-08T08:56:14;4.40;99.90
2463;DHT22;1243;54.298;10.172;2024-03-08T08:58:44;4.40;99.90
2463;DHT22;1243;54.298;10.172;2024-03-08T09:01:10;4.50;99.90
2463;DHT22;1243;54.298;10.172;2024-03-08T09:03:37;4.50;99.90
2463;DHT22;1243;54.298;10.172;2024-03-08T09:06:06;4.50;99.90
2463;DHT22;1243;54.298;10.172;2024-03-08T09:08:41;4.60;99.90
2463;DHT22;1243;54.298;10.172;2024-03-08T09:11:06;4.80;99.90
2463;DHT22;1243;54.298;10.172;2024-03-08T09:13:32;4.70;99.90
2463;DHT22;1243;54.298;10.172;2024-03-08T09:16:02;4.70;99.90
2463;DHT22;1243;54.298;10.172;2024-03-08T09:18:30;4.80;99.90
2463;DHT22;1243;54.298;10.172;2024-03-08T09:20:58;4.90;99.90
2463;DHT22;1243;54.298;10.172;2024-03-08T09:23:23;5.10;99.90
2463;DHT22;1243;54.298;10.172;2024-03-08T09:25:51;5.30;99.90
2463;DHT22;1243;54.298;10.172;2024-03-08T09:28:17;5.50;99.90
2463;DHT22;1243;54.298;10.172;2024-03-08T09:30:42;5.50;99.90
2463;DHT22;1243;54.298;10.172;2024-03-08T09:33:10;5.50;99.90
2463;DHT22;1243;54.298;10.172;2024-03-08T09:35:37;5.50;99.90
2463;DHT22;1243;54.298;10.172;2024-03-08T09:38:03;5.70;99.90
2463;DHT22;1243;54.298;10.172;2024-03-08T09:40:30;5.80;99.90
2463;DHT22;1243;54.298;10.172;2024-03-08T09:42:55;5.90;99.90
2463;DHT22;1243;54.298;10.172;2024-03-08T09:45:23;6.10;99.90
2463;DHT22;1243;54.298;10.172;2024-03-08T09:47:50;6.30;99.90
2463;DHT22;1243;54.298;10.172;2024-03-08T09:50:16;6.50;99.90
2463;DHT22;1243;54.298;10.172;2024-03-08T09:52:43;6.70;99.90
2463;DHT22;1243;54.298;10.172;2024-03-08T09:55:11;7.10;99.90
2463;DHT22;1243;54.298;10.172;2024-03-08T09:57:38;7.40;99.90
2463;DHT22;1243;54.298;10.172;2024-03-08T10:00:05;7.80;99.90
2463;DHT22;1243;54.298;10.172;2024-03-08T10:02:45;8.00;99.90
2463;DHT22;1243;54.298;10.172;2024-03-08T10:05:12;8.30;99.90
2463;DHT22;1243;54.298;10.172;2024-03-08T10:07:39;8.40;99.90
2463;DHT22;1243;54.298;10.172;2024-03-08T10:10:05;8.30;99.90
2463;DHT22;1243;54.298;10.172;2024-03-08T10:12:31;7.80;96.50
2463;DHT22;1243;54.298;10.172;2024-03-08T10:14:58;7.70;95.60
2463;DHT22;1243;54.298;10.172;2024-03-08T10:17:24;7.70;91.60
2463;DHT22;1243;54.298;10.172;2024-03-08T10:19:51;7.80;94.80
2463;DHT22;1243;54.298;10.172;2024-03-08T10:22:18;8.00;91.70
2463;DHT22;1243;54.298;10.172;2024-03-08T10:24:46;8.40;91.90
2463;DHT22;1243;54.298;10.172;2024-03-08T10:27:11;8.80;92.00
2463;DHT22;1243;54.298;10.172;2024-03-08T10:29:37;9.30;92.20
2463;DHT22;1243;54.298;10.172;2024-03-08T10:32:07;9.80;57.20
2463;DHT22;1243;54.298;10.172;2024-03-08T10:34:33;10.20;26.40
2463;DHT22;1243;54.298;10.172;2024-03-08T10:37:03;10.40;11.50
2463;DHT22;1243;54.298;10.172;2024-03-08T10:39:35;10.60;1.00
2463;DHT22;1243;54.298;10.172;2024-03-08T10:42:03;10.80;1.00
2463;DHT22;1243;54.298;10.172;2024-03-08T10:49:32;11.50;1.00
2463;DHT22;1243;54.298;10.172;2024-03-08T10:52:05;11.70;1.00
2463;DHT22;1243;54.298;10.172;2024-03-08T10:54:34;11.80;1.00
2463;DHT22;1243;54.298;10.172;2024-03-08T10:57:05;11.50;1.00
2463;DHT22;1243;54.298;10.172;2024-03-08T10:59:32;11.30;1.00
2463;DHT22;1243;54.298;10.172;2024-03-08T11:01:59;11.30;1.00
2463;DHT22;1243;54.298;10.172;2024-03-08T11:04:25;11.60;1.00
2463;DHT22;1243;54.298;10.172;2024-03-08T11:06:52;11.90;1.00
2463;DHT22;1243;54.298;10.172;2024-03-08T11:09:37;12.00;1.00
2463;DHT22;1243;54.298;10.172;2024-03-08T11:12:28;11.00;1.00
2463;DHT22;1243;54.298;10.172;2024-03-08T11:14:56;10.60;1.00
2463;DHT22;1243;54.298;10.172;2024-03-08T11:20:00;9.90;1.00
2463;DHT22;1243;54.298;10.172;2024-03-08T11:22:32;9.50;1.00
2463;DHT22;1243;54.298;10.172;2024-03-08T11:25:02;9.30;1.00
2463;DHT22;1243;54.298;10.172;2024-03-08T11:27:29;9.20;1.00
2463;DHT22;1243;54.298;10.172;2024-03-08T11:30:06;9.10;1.00
2463;DHT22;1243;54.298;10.172;2024-03-08T11:32:46;8.50;1.00
2463;DHT22;1243;54.298;10.172;2024-03-08T11:35:20;8.30;1.00
2463;DHT22;1243;54.298;10.172;2024-03-08T11:37:48;8.40;1.00
2463;DHT22;1243;54.298;10.172;2024-03-08T11:40:15;8.50;1.00
2463;DHT22;1243;54.298;10.172;2024-03-08T11:42:45;8.50;1.00
2463;DHT22;1243;54.298;10.172;2024-03-08T11:45:15;8.40;1.00
2463;DHT22;1243;54.298;10.172;2024-03-08T11:47:43;8.50;1.00
2463;DHT22;1243;54.298;10.172;2024-03-08T11:50:12;8.70;1.00
2463;DHT22;1243;54.298;10.172;2024-03-08T11:52:38;8.90;1.00
2463;DHT22;1243;54.298;10.172;2024-03-08T11:55:04;8.80;1.00
2463;DHT22;1243;54.298;10.172;2024-03-08T11:57:31;8.90;1.00
2463;DHT22;1243;54.298;10.172;2024-03-08T11:59:58;8.90;1.00
2463;DHT22;1243;54.298;10.172;2024-03-08T12:02:24;8.90;1.00
2463;DHT22;1243;54.298;10.172;2024-03-08T12:04:57;8.90;1.00
2463;DHT22;1243;54.298;10.172;2024-03-08T12:07:25;8.70;1.00
2463;DHT22;1243;54.298;10.172;2024-03-08T12:10:19;8.60;1.00
2463;DHT22;1243;54.298;10.172;2024-03-08T12:12:47;8.70;1.00
2463;DHT22;1243;54.298;10.172;2024-03-08T12:15:15;9.20;1.00
2463;DHT22;1243;54.298;10.172;2024-03-08T12:17:41;9.60;1.00
2463;DHT22;1243;54.298;10.172;2024-03-08T12:20:16;9.80;1.00
2463;DHT22;1243;54.298;10.172;2024-03-08T12:22:45;9.50;1.00
2463;DHT22;1243;54.298;10.172;2024-03-08T12:25:11;9.90;1.00
2463;DHT22;1243;54.298;10.172;2024-03-08T12:27:42;9.90;1.00
2463;DHT22;1243;54.298;10.172;2024-03-08T12:30:24;10.20;1.00
2463;DHT22;1243;54.298;10.172;2024-03-08T12:32:57;11.30;1.00
2463;DHT22;1243;54.298;10.172;2024-03-08T12:35:25;12.10;1.00
2463;DHT22;1243;54.298;10.172;2024-03-08T12:37:56;12.20;1.00
2463;DHT22;1243;54.298;10.172;2024-03-08T12:40:28;11.80;1.00
2463;DHT22;1243;54.298;10.172;2024-03-08T12:42:55;12.30;1.00
2463;DHT22;1243;54.298;10.172;2024-03-08T12:45:22;13.10;1.00
2463;DHT22;1243;54.298;10.172;2024-03-08T12:47:50;14.20;1.00
2463;DHT22;1243;54.298;10.172;2024-03-08T12:50:16;14.30;1.00
2463;DHT22;1243;54.298;10.172;2024-03-08T12:52:42;14.70;1.00
2463;DHT22;1243;54.298;10.172;2024-03-08T12:55:08;14.80;1.00
2463;DHT22;1243;54.298;10.172;2024-03-08T12:57:35;13.90;1.00
2463;DHT22;1243;54.298;10.172;2024-03-08T13:00:02;14.80;1.00
2463;DHT22;1243;54.298;10.172;2024-03-08T13:02:29;15.60;1.00
2463;DHT22;1243;54.298;10.172;2024-03-08T13:04:56;16.10;1.00
2463;DHT22;1243;54.298;10.172;2024-03-08T13:07:25;15.80;1.00
2463;DHT22;1243;54.298;10.172;2024-03-08T13:09:55;16.30;1.00
2463;DHT22;1243;54.298;10.172;2024-03-08T13:12:23;15.50;1.00
2463;DHT22;1243;54.298;10.172;2024-03-08T13:14:49;15.40;1.00
2463;DHT22;1243;54.298;10.172;2024-03-08T13:17:16;16.00;1.00
2463;DHT22;1243;54.298;10.172;2024-03-08T13:19:44;16.50;1.00
2463;DHT22;1243;54.298;10.172;2024-03-08T13:22:10;16.50;1.00
2463;DHT22;1243;54.298;10.172;2024-03-08T13:24:42;16.50;99.90
2463;DHT22;1243;54.298;10.172;2024-03-08T13:27:08;17.00;99.90
2463;DHT22;1243;54.298;10.172;2024-03-08T13:29:48;17.00;99.90
2463;DHT22;1243;54.298;10.172;2024-03-08T13:32:17;16.60;99.90
2463;DHT22;1243;54.298;10.172;2024-03-08T13:34:46;17.00;99.90
2463;DHT22;1243;54.298;10.172;2024-03-08T13:37:13;17.00;99.90
2463;DHT22;1243;54.298;10.172;2024-03-08T13:39:41;16.20;99.90
2463;DHT22;1243;54.298;10.172;2024-03-08T13:42:12;15.50;99.90
2463;DHT22;1243;54.298;10.172;2024-03-08T13:44:48;15.30;99.90
2463;DHT22;1243;54.298;10.172;2024-03-08T13:47:15;16.10;99.90
2463;DHT22;1243;54.298;10.172;2024-03-08T13:49:42;16.30;99.90
2463;DHT22;1243;54.298;10.172;2024-03-08T13:52:09;17.10;99.90
2463;DHT22;1243;54.298;10.172;2024-03-08T13:54:36;16.50;99.90
2463;DHT22;1243;54.298;10.172;2024-03-08T13:57:02;15.70;99.90
2463;DHT22;1243;54.298;10.172;2024-03-08T13:59:33;15.50;99.90
2463;DHT22;1243;54.298;10.172;2024-03-08T14:02:01;16.30;99.90
2463;DHT22;1243;54.298;10.172;2024-03-08T14:04:28;17.30;99.90
2463;DHT22;1243;54.298;10.172;2024-03-08T14:06:54;16.30;99.90
2463;DHT22;1243;54.298;10.172;2024-03-08T14:09:26;14.70;99.90
2463;DHT22;1243;54.298;10.172;2024-03-08T14:11:57;13.40;99.90
2463;DHT22;1243;54.298;10.172;2024-03-08T14:14:24;14.00;99.90
2463;DHT22;1243;54.298;10.172;2024-03-08T14:16:50;14.80;99.90
2463;DHT22;1243;54.298;10.172;2024-03-08T14:19:20;13.90;99.90
2463;DHT22;1243;54.298;10.172;2024-03-08T14:21:46;12.50;99.90
2463;DHT22;1243;54.298;10.172;2024-03-08T14:24:14;10.80;99.90
2463;DHT22;1243;54.298;10.172;2024-03-08T14:26:41;9.30;99.90
2463;DHT22;1243;54.298;10.172;2024-03-08T14:29:08;9.30;99.90
2463;DHT22;1243;54.298;10.172;2024-03-08T14:31:38;9.50;99.90
2463;DHT22;1243;54.298;10.172;2024-03-08T14:34:04;9.20;99.90
2463;DHT22;1243;54.298;10.172;2024-03-08T14:36:30;8.90;1.00
2463;DHT22;1243;54.298;10.172;2024-03-08T14:38:55;8.80;99.90
2463;DHT22;1243;54.298;10.172;2024-03-08T14:41:21;8.50;99.90
2463;DHT22;1243;54.298;10.172;2024-03-08T14:43:49;8.40;1.00
2463;DHT22;1243;54.298;10.172;2024-03-08T14:46:18;8.00;1.00
2463;DHT22;1243;54.298;10.172;2024-03-08T14:48:49;7.70;1.00
2463;DHT22;1243;54.298;10.172;2024-03-08T14:51:19;7.20;1.00
2463;DHT22;1243;54.298;10.172;2024-03-08T14:53:47;6.90;1.00
2463;DHT22;1243;54.298;10.172;2024-03-08T14:56:13;6.70;1.00
2463;DHT22;1243;54.298;10.172;2024-03-08T14:58:43;6.60;1.00
2463;DHT22;1243;54.298;10.172;2024-03-08T15:01:10;6.50;1.00
2463;DHT22;1243;54.298;10.172;2024-03-08T15:03:36;6.50;1.00
2463;DHT22;1243;54.298;10.172;2024-03-08T15:06:05;6.20;1.00
2463;DHT22;1243;54.298;10.172;2024-03-08T15:08:35;6.60;1.00
2463;DHT22;1243;54.298;10.172;2024-03-08T15:11:01;7.00;1.00
2463;DHT22;1243;54.298;10.172;2024-03-08T15:13:26;7.80;1.00
2463;DHT22;1243;54.298;10.172;2024-03-08T15:16:10;8.30;1.00
2463;DHT22;1243;54.298;10.172;2024-03-08T15:18:44;8.00;1.00
2463;DHT22;1243;54.298;10.172;2024-03-08T15:21:14;7.80;1.00
2463;DHT22;1243;54.298;10.172;2024-03-08T15:23:46;7.60;1.00
2463;DHT22;1243;54.298;10.172;2024-03-08T15:26:17;7.30;1.00
2463;DHT22;1243;54.298;10.172;2024-03-08T15:28:44;7.00;1.00
2463;DHT22;1243;54.298;10.172;2024-03-08T15:31:11;7.00;1.00
2463;DHT22;1243;54.298;10.172;2024-03-08T15:33:39;6.70;1.00
2463;DHT22;1243;54.298;10.172;2024-03-08T15:36:09;6.50;1.00
2463;DHT22;1243;54.298;10.172;2024-03-08T15:38:37;6.20;1.00
2463;DHT22;1243;54.298;10.172;2024-03-08T15:41:06;6.30;1.00
2463;DHT22;1243;54.298;10.172;2024-03-08T15:43:36;6.60;1.00
2463;DHT22;1243;54.298;10.172;2024-03-08T15:46:03;7.30;1.00
2463;DHT22;1243;54.298;10.172;2024-03-08T15:48:33;7.60;1.00
2463;DHT22;1243;54.298;10.172;2024-03-08T15:51:01;7.90;1.00
2463;DHT22;1243;54.298;10.172;2024-03-08T15:53:35;7.60;1.00
2463;DHT22;1243;54.298;10.172;2024-03-08T15:56:02;6.80;1.00
2463;DHT22;1243;54.298;10.172;2024-03-08T15:58:28;6.60;1.00
2463;DHT22;1243;54.298;10.172;2024-03-08T16:00:56;6.10;1.00
2463;DHT22;1243;54.298;10.172;2024-03-08T16:03:23;5.70;1.00
2463;DHT22;1243;54.298;10.172;2024-03-08T16:05:49;5.40;1.00
2463;DHT22;1243;54.298;10.172;2024-03-08T16:08:17;5.30;1.00
2463;DHT22;1243;54.298;10.172;2024-03-08T16:10:47;5.10;1.00
2463;DHT22;1243;54.298;10.172;2024-03-08T16:13:26;4.90;1.00
2463;DHT22;1243;54.298;10.172;2024-03-08T16:15:53;4.80;1.00
2463;DHT22;1243;54.298;10.172;2024-03-08T16:18:25;4.70;1.00